sensor_id;sensor_type;location;lat;lon;timestamp;temperature;humidity
18948;DHT22;9607;51.600;7.558;2024-02-28T00:01:16;0.00;99.90
18948;DHT22;9607;51.600;7.558;2024-02-28T00:03:43;0.00;99.90
18948;DHT22;9607;51.600;7.558;2024-02-28T00:06:10;-0.10;99.90
18948;DHT22;9607;51.600;7.558;2024-02-28T00:08:37;-0.10;99.90
18948;DHT22;9607;51.600;7.558;2024-02-28T00:11:04;-0.10;99.90
18948;DHT22;9607;51.600;7.558;2024-02-28T00:13:31;-0.10;99.90
18948;DHT22;9607;51.600;7.558;2024-02-28T00:15:58;-0.10;99.90
18948;DHT22;9607;51.600;7.558;2024-02-28T00:18:27;-0.10;99.90
18948;DHT22;9607;51.600;7.558;2024-02-28T00:20:53;-0.10;99.90
18948;DHT22;9607;51.600;7.558;2024-02-28T00:23:20;0.00;99.90
18948;DHT22;9607;51.600;7.558;2024-02-28T00:25:47;0.00;99.90
18948;DHT22;9607;51.600;7.558;2024-02-28T00:28:14;0.00;99.90
18948;DHT22;9607;51.600;7.558;2024-02-28T00:30:41;0.00;99.90
18948;DHT22;9607;51.600;7.558;2024-02-28T00:33:08;0.00;99.90
18948;DHT22;9607;51.600;7.558;2024-02-28T00:35:37;0.00;99.90
18948;DHT22;9607;51.600;7.558;2024-02-28T00:38:04;0.00;99.90
18948;DHT22;9607;51.600;7.558;2024-02-28T00:40:30;0.00;99.90
18948;DHT22;9607;51.600;7.558;2024-02-28T00:42:59;0.00;99.90
18948;DHT22;9607;51.600;7.558;2024-02-28T00:45:25;0.00;99.90
18948;DHT22;9607;51.600;7.558;2024-02-28T00:47:52;0.10;99.90
18948;DHT22;9607;51.600;7.558;2024-02-28T00:50:20;0.00;99.90
18948;DHT22;9607;51.600;7.558;2024-02-28T00:52:48;0.00;99.90
18948;DHT22;9607;51.600;7.558;2024-02-28T00:55:16;0.00;99.90
18948;DHT22;9607;51.600;7.558;2024-02-28T00:57:44;-0.10;99.90
18948;DHT22;9607;51.600;7.558;2024-02-28T01:00:12;-0.20;99.90
18948;DHT22;9607;51.600;7.558;2024-02-28T01:02:39;-0.20;99.90
18948;DHT22;9607;51.600;7.558;2024-02-28T01:05:07;-0.30;99.90
18948;DHT22;9607;51.600;7.558;2024-02-28T01:07:34;-0.30;99.90
18948;DHT22;9607;51.600;7.558;2024-02-28T01:10:03;-0.30;99.90
18948;DHT22;9607;51.600;7.558;2024-02-28T01:12:29;-0.30;99.90
18948;DHT22;9607;51.600;7.558;2024-02-28T01:14:56;-0.40;99.90
18948;DHT22;9607;51.600;7.558;2024-02-28T01:17:24;-0.50;99.90
18948;DHT22;9607;51.600;7.558;2024-02-28T01:19:51;-0.50;99.90
18948;DHT22;9607;51.600;7.558;2024-02-28T01:22:17;-0.50;99.90
18948;DHT22;9607;51.600;7.558;2024-02-28T01:24:45;-0.50;99.90
18948;DHT22;9607;51.600;7.558;2024-02-28T01:27:13;-0.60;99.90
18948;DHT22;9607;51.600;7.558;2024-02-28T01:29:40;-0.60;99.90
18948;DHT22;9607;51.600;7.558;2024-02-28T01:32:06;-0.70;99.90
18948;DHT22;9607;51.600;7.558;2024-02-28T01:34:33;-0.70;99.90
18948;DHT22;9607;51.600;7.558;2024-02-28T01:37:00;-0.80;99.90
18948;DHT22;9607;51.600;7.558;2024-02-28T01:39:27;-0.80;99.90
18948;DHT22;9607;51.600;7.558;2024-02-28T01:41:54;-0.80;99.90
18948;DHT22;9607;51.600;7.558;2024-02-28T01:44:24;-0.80;99.90
18948;DHT22;9607;51.600;7.558;2024-02-28T01:46:51;-0.90;99.90
18948;DHT22;9607;51.600;7.558;2024-02-28T01:49:20;-0.90;99.90
18948;DHT22;9607;51.600;7.558;2024-02-28T01:51:47;-0.80;99.90
18948;DHT22;9607;51.600;7.558;2024-02-28T01:54:14;-0.80;99.90
18948;DHT22;9607;51.600;7.558;2024-02-28T01:56:41;-0.80;99.90
18948;DHT22;9607;51.600;7.558;2024-02-28T01:59:10;-0.70;99.90
18948;DHT22;9607;51.600;7.558;2024-02-28T02:01:39;-0.60;99.90
18948;DHT22;9607;51.600;7.558;2024-02-28T02:04:06;-0.50;99.90
18948;DHT22;9607;51.600;7.558;2024-02-28T02:06:33;-0.40;99.90
18948;DHT22;9607;51.600;7.558;2024-02-28T02:09:04;-0.20;99.90
18948;DHT22;9607;51.600;7.558;2024-02-28T02:11:32;-0.20;99.90
18948;DHT22;9607;51.600;7.558;2024-02-28T02:13:59;-0.10;99.90
18948;DHT22;9607;51.600;7.558;2024-02-28T02:16:26;-0.10;99.90
18948;DHT22;9607;51.600;7.558;2024-02-28T02:18:54;0.00;99.90
18948;DHT22;9607;51.600;7.558;2024-02-28T02:21:23;0.00;99.90
18948;DHT22;9607;51.600;7.558;2024-02-28T02:23:52;0.00;99.90
18948;DHT22;9607;51.600;7.558;2024-02-28T02:26:19;0.00;99.90
18948;DHT22;9607;51.600;7.558;2024-02-28T02:28:45;0.00;99.90
18948;DHT22;9607;51.600;7.558;2024-02-28T02:31:14;0.10;99.90
18948;DHT22;9607;51.600;7.558;2024-02-28T02:33:41;0.10;99.90
18948;DHT22;9607;51.600;7.558;2024-02-28T02:36:07;0.20;99.90
18948;DHT22;9607;51.600;7.558;2024-02-28T02:38:34;0.20;99.90
18948;DHT22;9607;51.600;7.558;2024-02-28T02:41:03;0.30;99.90
18948;DHT22;9607;51.600;7.558;2024-02-28T02:43:29;0.30;99.90
18948;DHT22;9607;51.600;7.558;2024-02-28T02:45:56;0.40;99.90
18948;DHT22;9607;51.600;7.558;2024-02-28T02:48:23;0.50;99.90
18948;DHT22;9607;51.600;7.558;2024-02-28T02:50:50;0.60;99.90
18948;DHT22;9607;51.600;7.558;2024-02-28T02:53:17;0.60;99.90
18948;DHT22;9607;51.600;7.558;2024-02-28T02:55:44;0.70;99.90
18948;DHT22;9607;51.600;7.558;2024-02-28T02:58:12;0.70;99.90
18948;DHT22;9607;51.600;7.558;2024-02-28T03:00:39;0.70;99.90
18948;DHT22;9607;51.600;7.558;2024-02-28T03:03:06;0.70;99.90
18948;DHT22;9607;51.600;7.558;2024-02-28T03:05:33;0.70;99.90
18948;DHT22;9607;51.600;7.558;2024-02-28T03:08:00;0.70;99.90
18948;DHT22;9607;51.600;7.558;2024-02-28T03:10:28;0.70;99.90
18948;DHT22;9607;51.600;7.558;2024-02-28T03:12:55;0.70;99.90
18948;DHT22;9607;51.600;7.558;2024-02-28T03:15:24;0.70;99.90
18948;DHT22;9607;51.600;7.558;2024-02-28T03:17:50;0.70;99.90
18948;DHT22;9607;51.600;7.558;2024-02-28T03:20:17;0.70;99.90
18948;DHT22;9607;51.600;7.558;2024-02-28T03:22:44;0.70;99.90
18948;DHT22;9607;51.600;7.558;2024-02-28T03:25:11;0.70;99.90
18948;DHT22;9607;51.600;7.558;2024-02-28T03:27:38;0.70;99.90
18948;DHT22;9607;51.600;7.558;2024-02-28T03:30:06;0.80;99.90
18948;DHT22;9607;51.600;7.558;2024-02-28T03:32:35;0.80;99.90
18948;DHT22;9607;51.600;7.558;2024-02-28T03:35:02;0.80;99.90
18948;DHT22;9607;51.600;7.558;2024-02-28T03:37:30;0.90;99.90
18948;DHT22;9607;51.600;7.558;2024-02-28T03:39:57;0.90;99.90
18948;DHT22;9607;51.600;7.558;2024-02-28T03:42:24;0.90;99.90
18948;DHT22;9607;51.600;7.558;2024-02-28T03:44:51;1.00;99.90
18948;DHT22;9607;51.600;7.558;2024-02-28T03:47:18;1.00;99.90
18948;DHT22;9607;51.600;7.558;2024-02-28T03:49:46;1.10;99.90
18948;DHT22;9607;51.600;7.558;2024-02-28T03:52:13;1.10;99.90
18948;DHT22;9607;51.600;7.558;2024-02-28T03:54:42;1.20;99.90
18948;DHT22;9607;51.600;7.558;2024-02-28T03:57:10;1.20;99.90
18948;DHT22;9607;51.600;7.558;2024-02-28T03:59:36;1.30;99.90
18948;DHT22;9607;51.600;7.558;2024-02-28T04:02:04;1.30;99.90
18948;DHT22;9607;51.600;7.558;2024-02-28T04:04:31;1.30;99.90
18948;DHT22;9607;51.600;7.558;2024-02-28T04:07:00;1.40;99.90
18948;DHT22;9607;51.600;7.558;2024-02-28T04:09:27;1.50;99.90
18948;DHT22;9607;51.600;7.558;2024-02-28T04:11:54;1.50;99.90
18948;DHT22;9607;51.600;7.558;2024-02-28T04:14:21;1.60;99.90
18948;DHT22;9607;51.600;7.558;2024-02-28T04:16:48;1.60;99.90
18948;DHT22;9607;51.600;7.558;2024-02-28T04:19:17;1.70;99.90
18948;DHT22;9607;51.600;7.558;2024-02-28T04:21:43;1.70;99.90
18948;DHT22;9607;51.600;7.558;2024-02-28T04:24:11;1.80;99.90
18948;DHT22;9607;51.600;7.558;2024-02-28T04:26:38;1.80;99.90
18948;DHT22;9607;51.600;7.558;2024-02-28T04:29:05;1.80;99.90
18948;DHT22;9607;51.600;7.558;2024-02-28T04:31:38;1.90;99.90
18948;DHT22;9607;51.600;7.558;2024-02-28T04:34:05;1.90;99.90
18948;DHT22;9607;51.600;7.558;2024-02-28T04:36:31;2.00;99.90
18948;DHT22;9607;51.600;7.558;2024-02-28T04:38:58;2.00;99.90
18948;DHT22;9607;51.600;7.558;2024-02-28T04:41:27;2.00;99.90
18948;DHT22;9607;51.600;7.558;2024-02-28T04:43:54;2.10;99.90
18948;DHT22;9607;51.600;7.558;2024-02-28T04:46:21;2.10;99.90
18948;DHT22;9607;51.600;7.558;2024-02-28T04:48:49;2.10;99.90
18948;DHT22;9607;51.600;7.558;2024-02-28T04:51:16;2.20;99.90
18948;DHT22;9607;51.600;7.558;2024-02-28T04:53:43;2.30;99.90
18948;DHT22;9607;51.600;7.558;2024-02-28T04:56:10;2.30;99.90
18948;DHT22;9607;51.600;7.558;2024-02-28T04:58:38;2.30;99.90
18948;DHT22;9607;51.600;7.558;2024-02-28T05:01:05;2.40;99.90
18948;DHT22;9607;51.600;7.558;2024-02-28T05:03:32;2.40;99.90
18948;DHT22;9607;51.600;7.558;2024-02-28T05:05:58;2.50;99.90
18948;DHT22;9607;51.600;7.558;2024-02-28T05:08:25;2.50;99.90
18948;DHT22;9607;51.600;7.558;2024-02-28T05:10:54;2.50;99.90
18948;DHT22;9607;51.600;7.558;2024-02-28T05:13:21;2.60;99.90
18948;DHT22;9607;51.600;7.558;2024-02-28T05:15:51;2.60;99.90
18948;DHT22;9607;51.600;7.558;2024-02-28T05:18:19;2.60;99.90
18948;DHT22;9607;51.600;7.558;2024-02-28T05:20:47;2.60;99.90
18948;DHT22;9607;51.600;7.558;2024-02-28T05:23:14;2.60;99.90
18948;DHT22;9607;51.600;7.558;2024-02-28T05:25:41;2.70;99.90
18948;DHT22;9607;51.600;7.558;2024-02-28T05:28:08;2.70;99.90
18948;DHT22;9607;51.600;7.558;2024-02-28T05:30:35;2.70;99.90
18948;DHT22;9607;51.600;7.558;2024-02-28T05:33:04;2.70;99.90
18948;DHT22;9607;51.600;7.558;2024-02-28T05:35:31;2.70;99.90
18948;DHT22;9607;51.600;7.558;2024-02-28T05:37:58;2.70;99.90
18948;DHT22;9607;51.600;7.558;2024-02-28T05:40:25;2.90;99.90
18948;DHT22;9607;51.600;7.558;2024-02-28T05:42:52;2.80;99.90
18948;DHT22;9607;51.600;7.558;2024-02-28T05:45:19;2.80;99.90
18948;DHT22;9607;51.600;7.558;2024-02-28T05:47:46;2.90;99.90
18948;DHT22;9607;51.600;7.558;2024-02-28T05:50:14;2.90;99.90
18948;DHT22;9607;51.600;7.558;2024-02-28T05:52:41;2.90;99.90
18948;DHT22;9607;51.600;7.558;2024-02-28T05:55:09;2.90;99.90
18948;DHT22;9607;51.600;7.558;2024-02-28T05:57:36;2.90;99.90
18948;DHT22;9607;51.600;7.558;2024-02-28T06:00:03;2.90;99.90
18948;DHT22;9607;51.600;7.558;2024-02-28T06:02:35;2.90;99.90
18948;DHT22;9607;51.600;7.558;2024-02-28T06:05:02;2.90;99.90
18948;DHT22;9607;51.600;7.558;2024-02-28T06:07:30;3.00;99.90
18948;DHT22;9607;51.600;7.558;2024-02-28T06:09:57;2.90;99.90
18948;DHT22;9607;51.600;7.558;2024-02-28T06:12:24;2.90;99.90
18948;DHT22;9607;51.600;7.558;2024-02-28T06:14:51;2.90;99.90
18948;DHT22;9607;51.600;7.558;2024-02-28T06:17:20;2.90;99.90
18948;DHT22;9607;51.600;7.558;2024-02-28T06:19:46;2.90;99.90
18948;DHT22;9607;51.600;7.558;2024-02-28T06:22:13;2.90;99.90
18948;DHT22;9607;51.600;7.558;2024-02-28T06:24:42;3.00;99.90
18948;DHT22;9607;51.600;7.558;2024-02-28T06:27:08;3.00;99.90
18948;DHT22;9607;51.600;7.558;2024-02-28T06:29:38;3.00;99.90
18948;DHT22;9607;51.600;7.558;2024-02-28T06:32:05;3.00;99.90
18948;DHT22;9607;51.600;7.558;2024-02-28T06:34:32;3.10;99.90
18948;DHT22;9607;51.600;7.558;2024-02-28T06:36:58;3.10;99.90
18948;DHT22;9607;51.600;7.558;2024-02-28T06:39:25;3.10;99.90
18948;DHT22;9607;51.600;7.558;2024-02-28T06:41:55;3.20;99.90
18948;DHT22;9607;51.600;7.558;2024-02-28T06:44:21;3.20;99.90
18948;DHT22;9607;51.600;7.558;2024-02-28T06:46:49;3.20;99.90
18948;DHT22;9607;51.600;7.558;2024-02-28T06:49:16;3.30;99.90
18948;DHT22;9607;51.600;7.558;2024-02-28T06:51:43;3.30;99.90
18948;DHT22;9607;51.600;7.558;2024-02-28T06:54:10;3.40;99.90
18948;DHT22;9607;51.600;7.558;2024-02-28T06:56:37;3.40;99.90
18948;DHT22;9607;51.600;7.558;2024-02-28T06:59:05;3.50;99.90
18948;DHT22;9607;51.600;7.558;2024-02-28T07:01:33;3.60;99.90
18948;DHT22;9607;51.600;7.558;2024-02-28T07:04:00;3.60;99.90
18948;DHT22;9607;51.600;7.558;2024-02-28T07:06:26;3.70;99.90
18948;DHT22;9607;51.600;7.558;2024-02-28T07:08:55;3.70;99.90
18948;DHT22;9607;51.600;7.558;2024-02-28T07:11:21;3.80;99.90
18948;DHT22;9607;51.600;7.558;2024-02-28T07:13:48;3.90;99.90
18948;DHT22;9607;51.600;7.558;2024-02-28T07:16:16;3.90;99.90
18948;DHT22;9607;51.600;7.558;2024-02-28T07:18:43;4.00;99.90
18948;DHT22;9607;51.600;7.558;2024-02-28T07:21:10;4.10;99.90
18948;DHT22;9607;51.600;7.558;2024-02-28T07:23:39;4.20;99.90
18948;DHT22;9607;51.600;7.558;2024-02-28T07:26:06;4.30;99.90
18948;DHT22;9607;51.600;7.558;2024-02-28T07:28:33;4.30;99.90
18948;DHT22;9607;51.600;7.558;2024-02-28T07:31:00;4.40;99.90
18948;DHT22;9607;51.600;7.558;2024-02-28T07:33:28;4.40;99.90
18948;DHT22;9607;51.600;7.558;2024-02-28T07:35:55;4.50;99.90
18948;DHT22;9607;51.600;7.558;2024-02-28T07:38:26;4.60;99.90
18948;DHT22;9607;51.600;7.558;2024-02-28T07:40:54;4.70;99.90
18948;DHT22;9607;51.600;7.558;2024-02-28T07:43:21;4.70;99.90
18948;DHT22;9607;51.600;7.558;2024-02-28T07:45:48;4.70;99.90
18948;DHT22;9607;51.600;7.558;2024-02-28T07:48:14;4.70;99.90
18948;DHT22;9607;51.600;7.558;2024-02-28T07:50:44;4.80;99.90
18948;DHT22;9607;51.600;7.558;2024-02-28T07:53:11;4.80;99.90
18948;DHT22;9607;51.600;7.558;2024-02-28T07:55:39;4.90;99.90
18948;DHT22;9607;51.600;7.558;2024-02-28T07:58:06;4.90;99.90
18948;DHT22;9607;51.600;7.558;2024-02-28T08:00:34;5.00;99.90
18948;DHT22;9607;51.600;7.558;2024-02-28T08:03:01;5.00;99.90
18948;DHT22;9607;51.600;7.558;2024-02-28T08:05:28;5.10;99.90
18948;DHT22;9607;51.600;7.558;2024-02-28T08:07:57;5.20;99.90
18948;DHT22;9607;51.600;7.558;2024-02-28T08:10:23;5.30;99.90
18948;DHT22;9607;51.600;7.558;2024-02-28T08:12:50;5.30;99.90
18948;DHT22;9607;51.600;7.558;2024-02-28T08:15:17;5.40;99.90
18948;DHT22;9607;51.600;7.558;2024-02-28T08:17:44;5.50;99.90
18948;DHT22;9607;51.600;7.558;2024-02-28T08:20:11;5.50;99.90
18948;DHT22;9607;51.600;7.558;2024-02-28T08:22:39;5.60;99.90
18948;DHT22;9607;51.600;7.558;2024-02-28T08:25:08;5.60;99.90
18948;DHT22;9607;51.600;7.558;2024-02-28T08:27:36;5.60;99.90
18948;DHT22;9607;51.600;7.558;2024-02-28T08:30:05;5.60;99.90
18948;DHT22;9607;51.600;7.558;2024-02-28T08:32:32;5.50;99.90
18948;DHT22;9607;51.600;7.558;2024-02-28T08:34:59;5.50;99.90
18948;DHT22;9607;51.600;7.558;2024-02-28T08:37:26;5.50;99.90
18948;DHT22;9607;51.600;7.558;2024-02-28T08:39:54;5.50;99.90
18948;DHT22;9607;51.600;7.558;2024-02-28T08:42:25;5.60;99.90
18948;DHT22;9607;51.600;7.558;2024-02-28T08:44:52;5.60;99.90
18948;DHT22;9607;51.600;7.558;2024-02-28T08:47:23;5.80;99.90
18948;DHT22;9607;51.600;7.558;2024-02-28T08:49:50;5.90;99.90
18948;DHT22;9607;51.600;7.558;2024-02-28T08:52:17;5.90;99.90
18948;DHT22;9607;51.600;7.558;2024-02-28T08:54:43;6.00;99.90
18948;DHT22;9607;51.600;7.558;2024-02-28T08:57:10;6.10;99.90
18948;DHT22;9607;51.600;7.558;2024-02-28T08:59:39;6.10;99.90
18948;DHT22;9607;51.600;7.558;2024-02-28T09:02:06;6.20;99.90
18948;DHT22;9607;51.600;7.558;2024-02-28T09:04:33;6.40;99.90
18948;DHT22;9607;51.600;7.558;2024-02-28T09:07:00;6.50;99.90
18948;DHT22;9607;51.600;7.558;2024-02-28T09:09:27;6.70;99.90
18948;DHT22;9607;51.600;7.558;2024-02-28T09:11:55;6.70;99.90
18948;DHT22;9607;51.600;7.558;2024-02-28T09:14:22;6.80;99.90
18948;DHT22;9607;51.600;7.558;2024-02-28T09:16:50;6.80;99.90
18948;DHT22;9607;51.600;7.558;2024-02-28T09:19:17;6.90;99.90
18948;DHT22;9607;51.600;7.558;2024-02-28T09:21:44;6.90;99.90
18948;DHT22;9607;51.600;7.558;2024-02-28T09:24:13;7.00;99.90
18948;DHT22;9607;51.600;7.558;2024-02-28T09:26:40;7.00;99.90
18948;DHT22;9607;51.600;7.558;2024-02-28T09:29:07;7.00;99.90
18948;DHT22;9607;51.600;7.558;2024-02-28T09:31:33;7.00;99.90
18948;DHT22;9607;51.600;7.558;2024-02-28T09:34:02;7.10;99.90
18948;DHT22;9607;51.600;7.558;2024-02-28T09:36:33;7.20;99.90
18948;DHT22;9607;51.600;7.558;2024-02-28T09:38:59;7.20;99.90
18948;DHT22;9607;51.600;7.558;2024-02-28T09:41:26;7.20;99.90
18948;DHT22;9607;51.600;7.558;2024-02-28T09:43:54;7.20;99.90
18948;DHT22;9607;51.600;7.558;2024-02-28T09:46:21;7.30;99.90
18948;DHT22;9607;51.600;7.558;2024-02-28T09:48:49;7.50;99.90
18948;DHT22;9607;51.600;7.558;2024-02-28T09:51:21;7.60;99.90
18948;DHT22;9607;51.600;7.558;2024-02-28T09:53:49;7.70;99.90
18948;DHT22;9607;51.600;7.558;2024-02-28T09:56:16;7.80;99.90
18948;DHT22;9607;51.600;7.558;2024-02-28T09:58:44;7.90;99.90
18948;DHT22;9607;51.600;7.558;2024-02-28T10:01:11;7.90;99.90
18948;DHT22;9607;51.600;7.558;2024-02-28T10:03:44;8.00;99.90
18948;DHT22;9607;51.600;7.558;2024-02-28T10:06:11;8.00;99.90
18948;DHT22;9607;51.600;7.558;2024-02-28T10:08:40;8.10;99.90
18948;DHT22;9607;51.600;7.558;2024-02-28T10:11:07;8.20;99.90
18948;DHT22;9607;51.600;7.558;2024-02-28T10:13:34;8.20;99.90
18948;DHT22;9607;51.600;7.558;2024-02-28T10:16:02;8.40;99.90
18948;DHT22;9607;51.600;7.558;2024-02-28T10:18:30;8.50;99.90
18948;DHT22;9607;51.600;7.558;2024-02-28T10:20:57;8.70;99.90
18948;DHT22;9607;51.600;7.558;2024-02-28T10:23:24;8.80;99.90
18948;DHT22;9607;51.600;7.558;2024-02-28T10:25:54;8.80;99.90
18948;DHT22;9607;51.600;7.558;2024-02-28T10:28:21;8.80;99.90
18948;DHT22;9607;51.600;7.558;2024-02-28T10:30:48;8.90;99.90
18948;DHT22;9607;51.600;7.558;2024-02-28T10:33:16;9.00;99.90
18948;DHT22;9607;51.600;7.558;2024-02-28T10:35:43;9.00;99.90
18948;DHT22;9607;51.600;7.558;2024-02-28T10:38:10;9.00;99.90
18948;DHT22;9607;51.600;7.558;2024-02-28T10:40:38;9.20;99.90
18948;DHT22;9607;51.600;7.558;2024-02-28T10:43:08;9.20;99.90
18948;DHT22;9607;51.600;7.558;2024-02-28T10:45:36;9.20;99.90
18948;DHT22;9607;51.600;7.558;2024-02-28T10:48:04;9.20;99.90
18948;DHT22;9607;51.600;7.558;2024-02-28T10:50:31;9.10;99.90
18948;DHT22;9607;51.600;7.558;2024-02-28T10:53:01;9.00;99.90
18948;DHT22;9607;51.600;7.558;2024-02-28T10:55:34;9.00;99.90
18948;DHT22;9607;51.600;7.558;2024-02-28T10:58:03;8.90;99.90
18948;DHT22;9607;51.600;7.558;2024-02-28T11:00:34;8.80;99.90
18948;DHT22;9607;51.600;7.558;2024-02-28T11:03:02;8.80;99.90
18948;DHT22;9607;51.600;7.558;2024-02-28T11:05:36;8.80;99.90
18948;DHT22;9607;51.600;7.558;2024-02-28T11:08:05;8.80;99.90
18948;DHT22;9607;51.600;7.558;2024-02-28T11:10:35;8.90;99.90
18948;DHT22;9607;51.600;7.558;2024-02-28T11:13:02;8.90;99.90
18948;DHT22;9607;51.600;7.558;2024-02-28T11:15:29;9.00;99.90
18948;DHT22;9607;51.600;7.558;2024-02-28T11:18:07;9.10;99.90
18948;DHT22;9607;51.600;7.558;2024-02-28T11:20:35;9.30;99.90
18948;DHT22;9607;51.600;7.558;2024-02-28T11:23:02;9.40;99.90
18948;DHT22;9607;51.600;7.558;2024-02-28T11:25:28;9.40;99.90
18948;DHT22;9607;51.600;7.558;2024-02-28T11:27:55;9.40;99.90
18948;DHT22;9607;51.600;7.558;2024-02-28T11:30:22;9.60;99.90
18948;DHT22;9607;51.600;7.558;2024-02-28T11:32:52;9.60;99.90
18948;DHT22;9607;51.600;7.558;2024-02-28T11:35:22;9.80;99.90
18948;DHT22;9607;51.600;7.558;2024-02-28T11:37:49;9.90;99.90
18948;DHT22;9607;51.600;7.558;2024-02-28T11:40:16;10.00;99.90
18948;DHT22;9607;51.600;7.558;2024-02-28T11:42:43;10.20;99.90
18948;DHT22;9607;51.600;7.558;2024-02-28T11:45:10;10.20;99.90
18948;DHT22;9607;51.600;7.558;2024-02-28T11:47:37;10.40;99.90
18948;DHT22;9607;51.600;7.558;2024-02-28T11:50:05;10.60;99.90
18948;DHT22;9607;51.600;7.558;2024-02-28T11:52:34;10.80;99.90
18948;DHT22;9607;51.600;7.558;2024-02-28T11:55:00;11.00;99.90
18948;DHT22;9607;51.600;7.558;2024-02-28T11:57:27;11.20;99.90
18948;DHT22;9607;51.600;7.558;2024-02-28T12:00:02;11.30;99.90
18948;DHT22;9607;51.600;7.558;2024-02-28T12:02:30;11.40;99.90
18948;DHT22;9607;51.600;7.558;2024-02-28T12:05:00;11.50;99.90
18948;DHT22;9607;51.600;7.558;2024-02-28T12:07:27;11.60;99.90
18948;DHT22;9607;51.600;7.558;2024-02-28T12:09:56;11.60;99.90
18948;DHT22;9607;51.600;7.558;2024-02-28T12:12:23;11.60;99.90
18948;DHT22;9607;51.600;7.558;2024-02-28T12:14:50;11.60;99.90
18948;DHT22;9607;51.600;7.558;2024-02-28T12:17:17;11.50;99.90
18948;DHT22;9607;51.600;7.558;2024-02-28T12:19:44;11.50;99.90
18948;DHT22;9607;51.600;7.558;2024-02-28T12:22:11;11.60;99.90
18948;DHT22;9607;51.600;7.558;2024-02-28T12:24:38;11.90;99.90
18948;DHT22;9607;51.600;7.558;2024-02-28T12:27:06;12.00;99.90
18948;DHT22;9607;51.600;7.558;2024-02-28T12:29:33;12.40;99.90
18948;DHT22;9607;51.600;7.558;2024-02-28T12:32:00;12.80;99.90
18948;DHT22;9607;51.600;7.558;2024-02-28T12:34:26;13.10;99.90
18948;DHT22;9607;51.600;7.558;2024-02-28T12:36:53;13.40;99.90
18948;DHT22;9607;51.600;7.558;2024-02-28T12:39:20;13.50;99.90
18948;DHT22;9607;51.600;7.558;2024-02-28T12:41:48;13.80;99.90
18948;DHT22;9607;51.600;7.558;2024-02-28T12:44:16;14.20;99.90
18948;DHT22;9607;51.600;7.558;2024-02-28T12:46:43;14.20;99.90
18948;DHT22;9607;51.600;7.558;2024-02-28T12:49:10;14.40;99.90
18948;DHT22;9607;51.600;7.558;2024-02-28T12:51:38;14.50;99.90
18948;DHT22;9607;51.600;7.558;2024-02-28T12:54:06;14.80;99.90
18948;DHT22;9607;51.600;7.558;2024-02-28T12:56:33;15.20;98.80
18948;DHT22;9607;51.600;7.558;2024-02-28T12:59:00;15.40;96.40
18948;DHT22;9607;51.600;7.558;2024-02-28T13:01:29;15.40;95.50
18948;DHT22;9607;51.600;7.558;2024-02-28T13:03:56;15.40;95.90
18948;DHT22;9607;51.600;7.558;2024-02-28T13:06:23;15.50;94.90
18948;DHT22;9607;51.600;7.558;2024-02-28T13:08:49;15.40;94.30
18948;DHT22;9607;51.600;7.558;2024-02-28T13:11:18;15.20;95.20
18948;DHT22;9607;51.600;7.558;2024-02-28T13:13:46;15.00;96.90
18948;DHT22;9607;51.600;7.558;2024-02-28T13:16:13;14.90;97.80
18948;DHT22;9607;51.600;7.558;2024-02-28T13:18:44;14.90;97.10
18948;DHT22;9607;51.600;7.558;2024-02-28T13:21:11;14.90;97.70
18948;DHT22;9607;51.600;7.558;2024-02-28T13:23:38;14.90;97.40
18948;DHT22;9607;51.600;7.558;2024-02-28T13:26:05;15.00;96.60
18948;DHT22;9607;51.600;7.558;2024-02-28T13:28:32;14.90;95.80
18948;DHT22;9607;51.600;7.558;2024-02-28T13:31:02;14.80;96.20
18948;DHT22;9607;51.600;7.558;2024-02-28T13:33:29;14.70;96.90
18948;DHT22;9607;51.600;7.558;2024-02-28T13:35:57;14.80;97.90
18948;DHT22;9607;51.600;7.558;2024-02-28T13:38:24;14.70;96.10
18948;DHT22;9607;51.600;7.558;2024-02-28T13:40:51;14.50;95.70
18948;DHT22;9607;51.600;7.558;2024-02-28T13:43:18;14.30;95.60
18948;DHT22;9607;51.600;7.558;2024-02-28T13:45:47;14.10;98.10
18948;DHT22;9607;51.600;7.558;2024-02-28T13:48:16;13.90;96.70
18948;DHT22;9607;51.600;7.558;2024-02-28T13:50:44;13.70;97.90
18948;DHT22;9607;51.600;7.558;2024-02-28T13:53:13;13.50;98.50
18948;DHT22;9607;51.600;7.558;2024-02-28T13:55:40;13.50;99.90
18948;DHT22;9607;51.600;7.558;2024-02-28T13:58:08;13.50;99.90
18948;DHT22;9607;51.600;7.558;2024-02-28T14:00:36;13.40;99.60
18948;DHT22;9607;51.600;7.558;2024-02-28T14:03:04;13.40;99.60
18948;DHT22;9607;51.600;7.558;2024-02-28T14:05:31;13.30;99.90
18948;DHT22;9607;51.600;7.558;2024-02-28T14:07:58;13.30;99.90
18948;DHT22;9607;51.600;7.558;2024-02-28T14:10:26;13.20;99.90
18948;DHT22;9607;51.600;7.558;2024-02-28T14:12:53;13.10;99.90
18948;DHT22;9607;51.600;7.558;2024-02-28T14:15:20;13.00;99.90
18948;DHT22;9607;51.600;7.558;2024-02-28T14:17:48;13.00;99.90
18948;DHT22;9607;51.600;7.558;2024-02-28T14:20:16;13.00;99.90
18948;DHT22;9607;51.600;7.558;2024-02-28T14:22:43;12.80;99.90
18948;DHT22;9607;51.600;7.558;2024-02-28T14:25:11;12.70;99.90
18948;DHT22;9607;51.600;7.558;2024-02-28T14:27:41;12.60;99.90
18948;DHT22;9607;51.600;7.558;2024-02-28T14:30:09;12.60;99.90
18948;DHT22;9607;51.600;7.558;2024-02-28T14:32:36;12.50;99.90
18948;DHT22;9607;51.600;7.558;2024-02-28T14:35:03;12.40;99.90
18948;DHT22;9607;51.600;7.558;2024-02-28T14:37:30;12.30;99.90
18948;DHT22;9607;51.600;7.558;2024-02-28T14:39:57;12.20;99.90
18948;DHT22;9607;51.600;7.558;2024-02-28T14:42:25;12.10;99.90
18948;DHT22;9607;51.600;7.558;2024-02-28T14:44:53;12.10;99.90
18948;DHT22;9607;51.600;7.558;2024-02-28T14:47:20;12.10;99.90
18948;DHT22;9607;51.600;7.558;2024-02-28T14:49:47;12.10;99.90
18948;DHT22;9607;51.600;7.558;2024-02-28T14:52:14;12.00;99.90
18948;DHT22;9607;51.600;7.558;2024-02-28T14:54:40;12.10;99.90
18948;DHT22;9607;51.600;7.558;2024-02-28T14:57:09;12.00;99.90
18948;DHT22;9607;51.600;7.558;2024-02-28T14:59:36;12.00;99.90
18948;DHT22;9607;51.600;7.558;2024-02-28T15:02:05;11.90;99.90
18948;DHT22;9607;51.600;7.558;2024-02-28T15:04:32;11.90;99.90
18948;DHT22;9607;51.600;7.558;2024-02-28T15:06:59;11.80;99.90
18948;DHT22;9607;51.600;7.558;2024-02-28T15:09:26;11.70;99.90
18948;DHT22;9607;51.600;7.558;2024-02-28T15:11:53;11.70;99.90
18948;DHT22;9607;51.600;7.558;2024-02-28T15:14:20;11.70;99.90
18948;DHT22;9607;51.600;7.558;2024-02-28T15:16:48;11.80;99.90
18948;DHT22;9607;51.600;7.558;2024-02-28T15:19:17;11.70;99.90
18948;DHT22;9607;51.600;7.558;2024-02-28T15:21:45;11.70;99.90
18948;DHT22;9607;51.600;7.558;2024-02-28T15:24:12;11.70;99.90
18948;DHT22;9607;51.600;7.558;2024-02-28T15:26:39;11.60;99.90
18948;DHT22;9607;51.600;7.558;2024-02-28T15:29:06;11.50;99.90
18948;DHT22;9607;51.600;7.558;2024-02-28T15:31:33;11.40;99.90
18948;DHT22;9607;51.600;7.558;2024-02-28T15:34:01;11.40;99.90
18948;DHT22;9607;51.600;7.558;2024-02-28T15:36:30;11.40;99.90
18948;DHT22;9607;51.600;7.558;2024-02-28T15:38:58;11.40;99.90
18948;DHT22;9607;51.600;7.558;2024-02-28T15:41:25;11.40;99.90
18948;DHT22;9607;51.600;7.558;2024-02-28T15:43:52;11.40;99.90
18948;DHT22;9607;51.600;7.558;2024-02-28T15:46:20;11.30;99.90
18948;DHT22;9607;51.600;7.558;2024-02-28T15:48:48;11.30;99.90
18948;DHT22;9607;51.600;7.558;2024-02-28T15:51:14;11.40;99.90
18948;DHT22;9607;51.600;7.558;2024-02-28T15:53:43;11.40;99.90
18948;DHT22;9607;51.600;7.558;2024-02-28T15:56:10;11.30;99.90